sensor_id;sensor_type;location;lat;lon;timestamp;P1;durP1;ratioP1;P2;durP2;ratioP2
71303;SDS011;59091;47.446;19.148;2023-04-06T00:01:12;10.07;;;5.03;;
71303;SDS011;59091;47.446;19.148;2023-04-06T00:03:37;11.45;;;5.75;;
71303;SDS011;59091;47.446;19.148;2023-04-06T00:06:03;12.50;;;5.70;;
71303;SDS011;59091;47.446;19.148;2023-04-06T00:08:29;10.02;;;5.40;;
71303;SDS011;59091;47.446;19.148;2023-04-06T00:10:54;9.55;;;5.03;;
71303;SDS011;59091;47.446;19.148;2023-04-06T00:13:20;13.00;;;5.65;;
71303;SDS011;59091;47.446;19.148;2023-04-06T00:15:46;13.43;;;5.47;;
71303;SDS011;59091;47.446;19.148;2023-04-06T00:18:11;11.90;;;6.07;;
71303;SDS011;59091;47.446;19.148;2023-04-06T00:20:37;9.88;;;5.68;;
71303;SDS011;59091;47.446;19.148;2023-04-06T00:23:03;12.25;;;5.80;;
71303;SDS011;59091;47.446;19.148;2023-04-06T00:25:28;11.25;;;5.70;;
71303;SDS011;59091;47.446;19.148;2023-04-06T00:27:54;10.82;;;5.65;;
71303;SDS011;59091;47.446;19.148;2023-04-06T00:30:19;10.40;;;5.25;;
71303;SDS011;59091;47.446;19.148;2023-04-06T00:32:45;11.10;;;6.13;;
71303;SDS011;59091;47.446;19.148;2023-04-06T00:35:10;12.43;;;6.05;;
71303;SDS011;59091;47.446;19.148;2023-04-06T00:37:36;11.32;;;5.88;;
71303;SDS011;59091;47.446;19.148;2023-04-06T00:40:01;11.82;;;5.75;;
71303;SDS011;59091;47.446;19.148;2023-04-06T00:42:27;11.77;;;5.50;;
71303;SDS011;59091;47.446;19.148;2023-04-06T00:47:19;10.93;;;5.50;;
71303;SDS011;59091;47.446;19.148;2023-04-06T00:49:45;8.00;;;5.72;;
71303;SDS011;59091;47.446;19.148;2023-04-06T00:52:10;10.45;;;5.63;;
71303;SDS011;59091;47.446;19.148;2023-04-06T00:54:36;10.65;;;5.13;;
71303;SDS011;59091;47.446;19.148;2023-04-06T00:57:01;11.25;;;6.32;;
71303;SDS011;59091;47.446;19.148;2023-04-06T00:59:27;12.77;;;6.15;;
71303;SDS011;59091;47.446;19.148;2023-04-06T01:01:53;15.93;;;6.63;;
71303;SDS011;59091;47.446;19.148;2023-04-06T01:04:19;12.50;;;6.38;;
71303;SDS011;59091;47.446;19.148;2023-04-06T01:06:44;12.20;;;6.57;;
71303;SDS011;59091;47.446;19.148;2023-04-06T01:09:10;11.63;;;6.82;;
71303;SDS011;59091;47.446;19.148;2023-04-06T01:11:36;13.27;;;6.97;;
71303;SDS011;59091;47.446;19.148;2023-04-06T01:14:01;15.30;;;6.75;;
71303;SDS011;59091;47.446;19.148;2023-04-06T01:16:28;10.20;;;5.97;;
71303;SDS011;59091;47.446;19.148;2023-04-06T01:18:53;10.38;;;6.20;;
71303;SDS011;59091;47.446;19.148;2023-04-06T01:21:19;9.40;;;5.97;;
71303;SDS011;59091;47.446;19.148;2023-04-06T01:23:45;14.38;;;6.55;;
71303;SDS011;59091;47.446;19.148;2023-04-06T01:26:11;10.30;;;6.35;;
71303;SDS011;59091;47.446;19.148;2023-04-06T01:28:37;14.68;;;6.63;;
71303;SDS011;59091;47.446;19.148;2023-04-06T01:31:03;14.15;;;7.30;;
71303;SDS011;59091;47.446;19.148;2023-04-06T01:33:29;15.68;;;7.30;;
71303;SDS011;59091;47.446;19.148;2023-04-06T01:35:55;14.00;;;6.95;;
71303;SDS011;59091;47.446;19.148;2023-04-06T01:38:20;14.07;;;6.95;;
71303;SDS011;59091;47.446;19.148;2023-04-06T01:40:46;17.92;;;7.65;;
71303;SDS011;59091;47.446;19.148;2023-04-06T01:43:11;16.15;;;7.38;;
71303;SDS011;59091;47.446;19.148;2023-04-06T01:45:37;17.77;;;7.57;;
71303;SDS011;59091;47.446;19.148;2023-04-06T01:48:02;12.50;;;7.00;;
71303;SDS011;59091;47.446;19.148;2023-04-06T01:50:28;15.10;;;6.75;;
71303;SDS011;59091;47.446;19.148;2023-04-06T01:52:54;14.32;;;7.22;;
71303;SDS011;59091;47.446;19.148;2023-04-06T01:55:20;11.93;;;7.35;;
71303;SDS011;59091;47.446;19.148;2023-04-06T01:57:45;13.73;;;7.38;;
71303;SDS011;59091;47.446;19.148;2023-04-06T02:00:11;16.02;;;7.45;;
71303;SDS011;59091;47.446;19.148;2023-04-06T02:02:37;17.15;;;7.63;;
71303;SDS011;59091;47.446;19.148;2023-04-06T02:05:02;15.25;;;8.32;;
71303;SDS011;59091;47.446;19.148;2023-04-06T02:07:28;17.27;;;7.72;;
71303;SDS011;59091;47.446;19.148;2023-04-06T02:09:54;16.42;;;7.72;;
71303;SDS011;59091;47.446;19.148;2023-04-06T02:12:20;14.23;;;7.57;;
71303;SDS011;59091;47.446;19.148;2023-04-06T02:14:46;15.00;;;8.10;;
71303;SDS011;59091;47.446;19.148;2023-04-06T02:17:11;15.57;;;7.22;;
71303;SDS011;59091;47.446;19.148;2023-04-06T02:19:36;19.13;;;8.15;;
71303;SDS011;59091;47.446;19.148;2023-04-06T02:22:02;15.15;;;6.82;;
71303;SDS011;59091;47.446;19.148;2023-04-06T02:24:27;11.07;;;7.03;;
71303;SDS011;59091;47.446;19.148;2023-04-06T02:26:53;15.30;;;7.57;;
71303;SDS011;59091;47.446;19.148;2023-04-06T02:29:18;13.00;;;7.35;;
71303;SDS011;59091;47.446;19.148;2023-04-06T02:31:45;13.55;;;6.70;;
71303;SDS011;59091;47.446;19.148;2023-04-06T02:34:10;14.43;;;6.85;;
71303;SDS011;59091;47.446;19.148;2023-04-06T02:36:37;15.38;;;7.43;;
71303;SDS011;59091;47.446;19.148;2023-04-06T02:39:02;14.20;;;7.50;;
71303;SDS011;59091;47.446;19.148;2023-04-06T02:41:28;12.65;;;6.55;;
71303;SDS011;59091;47.446;19.148;2023-04-06T02:43:53;16.75;;;7.20;;
71303;SDS011;59091;47.446;19.148;2023-04-06T02:46:19;13.00;;;7.55;;
71303;SDS011;59091;47.446;19.148;2023-04-06T02:48:45;17.70;;;7.32;;
71303;SDS011;59091;47.446;19.148;2023-04-06T02:51:10;14.45;;;7.32;;
71303;SDS011;59091;47.446;19.148;2023-04-06T02:53:36;15.25;;;7.63;;
71303;SDS011;59091;47.446;19.148;2023-04-06T02:56:01;10.80;;;6.35;;
71303;SDS011;59091;47.446;19.148;2023-04-06T02:58:26;12.50;;;6.70;;
71303;SDS011;59091;47.446;19.148;2023-04-06T03:00:52;14.13;;;7.30;;
71303;SDS011;59091;47.446;19.148;2023-04-06T03:03:17;13.23;;;7.68;;
71303;SDS011;59091;47.446;19.148;2023-04-06T03:05:43;15.38;;;7.10;;
71303;SDS011;59091;47.446;19.148;2023-04-06T03:08:08;15.98;;;6.97;;
71303;SDS011;59091;47.446;19.148;2023-04-06T03:10:34;12.85;;;7.07;;
71303;SDS011;59091;47.446;19.148;2023-04-06T03:12:59;14.38;;;7.55;;
71303;SDS011;59091;47.446;19.148;2023-04-06T03:15:25;15.60;;;7.15;;
71303;SDS011;59091;47.446;19.148;2023-04-06T03:17:51;13.10;;;6.60;;
71303;SDS011;59091;47.446;19.148;2023-04-06T03:20:16;15.52;;;7.18;;
71303;SDS011;59091;47.446;19.148;2023-04-06T03:22:42;11.98;;;7.10;;
71303;SDS011;59091;47.446;19.148;2023-04-06T03:25:07;11.50;;;7.45;;
71303;SDS011;59091;47.446;19.148;2023-04-06T03:27:33;12.88;;;7.57;;
71303;SDS011;59091;47.446;19.148;2023-04-06T03:29:58;14.23;;;7.75;;
71303;SDS011;59091;47.446;19.148;2023-04-06T03:32:23;13.35;;;7.68;;
71303;SDS011;59091;47.446;19.148;2023-04-06T03:34:49;15.73;;;7.93;;
71303;SDS011;59091;47.446;19.148;2023-04-06T03:37:15;16.77;;;7.65;;
71303;SDS011;59091;47.446;19.148;2023-04-06T03:39:40;17.05;;;7.45;;
71303;SDS011;59091;47.446;19.148;2023-04-06T03:42:06;13.73;;;7.82;;
71303;SDS011;59091;47.446;19.148;2023-04-06T03:44:31;15.77;;;8.02;;
71303;SDS011;59091;47.446;19.148;2023-04-06T03:46:56;17.20;;;7.25;;
71303;SDS011;59091;47.446;19.148;2023-04-06T03:49:22;13.63;;;7.65;;
71303;SDS011;59091;47.446;19.148;2023-04-06T03:51:47;16.52;;;7.72;;
71303;SDS011;59091;47.446;19.148;2023-04-06T03:54:13;18.85;;;8.30;;
71303;SDS011;59091;47.446;19.148;2023-04-06T03:56:38;14.00;;;7.90;;
71303;SDS011;59091;47.446;19.148;2023-04-06T03:59:04;15.13;;;8.52;;
71303;SDS011;59091;47.446;19.148;2023-04-06T04:01:30;17.63;;;8.02;;
71303;SDS011;59091;47.446;19.148;2023-04-06T04:03:55;14.30;;;8.57;;
71303;SDS011;59091;47.446;19.148;2023-04-06T04:06:21;16.65;;;8.30;;
71303;SDS011;59091;47.446;19.148;2023-04-06T04:08:46;20.60;;;8.77;;
71303;SDS011;59091;47.446;19.148;2023-04-06T04:11:12;15.93;;;8.13;;
71303;SDS011;59091;47.446;19.148;2023-04-06T04:13:37;15.15;;;8.55;;
71303;SDS011;59091;47.446;19.148;2023-04-06T04:16:03;14.88;;;8.38;;
71303;SDS011;59091;47.446;19.148;2023-04-06T04:18:28;16.33;;;8.82;;
71303;SDS011;59091;47.446;19.148;2023-04-06T04:20:54;15.65;;;8.90;;
71303;SDS011;59091;47.446;19.148;2023-04-06T04:23:19;18.50;;;10.35;;
71303;SDS011;59091;47.446;19.148;2023-04-06T04:25:45;19.77;;;10.65;;
71303;SDS011;59091;47.446;19.148;2023-04-06T04:28:10;21.85;;;10.68;;
71303;SDS011;59091;47.446;19.148;2023-04-06T04:30:35;25.23;;;11.13;;
71303;SDS011;59091;47.446;19.148;2023-04-06T04:33:01;30.27;;;13.32;;
71303;SDS011;59091;47.446;19.148;2023-04-06T04:35:26;25.05;;;12.60;;
71303;SDS011;59091;47.446;19.148;2023-04-06T04:37:52;25.90;;;12.60;;
71303;SDS011;59091;47.446;19.148;2023-04-06T04:40:18;29.45;;;11.63;;
71303;SDS011;59091;47.446;19.148;2023-04-06T04:42:43;23.65;;;10.80;;
71303;SDS011;59091;47.446;19.148;2023-04-06T04:45:08;25.48;;;10.57;;
71303;SDS011;59091;47.446;19.148;2023-04-06T04:47:36;22.67;;;10.88;;
71303;SDS011;59091;47.446;19.148;2023-04-06T04:50:01;23.02;;;10.70;;
71303;SDS011;59091;47.446;19.148;2023-04-06T04:52:27;18.00;;;10.10;;
71303;SDS011;59091;47.446;19.148;2023-04-06T04:54:52;23.00;;;10.10;;
71303;SDS011;59091;47.446;19.148;2023-04-06T04:57:18;16.75;;;9.13;;
71303;SDS011;59091;47.446;19.148;2023-04-06T04:59:43;20.17;;;10.27;;
71303;SDS011;59091;47.446;19.148;2023-04-06T05:02:09;16.90;;;9.68;;
71303;SDS011;59091;47.446;19.148;2023-04-06T05:04:35;23.05;;;9.88;;
71303;SDS011;59091;47.446;19.148;2023-04-06T05:07:04;28.65;;;10.68;;
71303;SDS011;59091;47.446;19.148;2023-04-06T05:09:30;27.08;;;10.57;;
71303;SDS011;59091;47.446;19.148;2023-04-06T05:11:56;23.25;;;11.15;;
71303;SDS011;59091;47.446;19.148;2023-04-06T05:14:22;22.75;;;10.15;;
71303;SDS011;59091;47.446;19.148;2023-04-06T05:16:48;24.55;;;10.50;;
71303;SDS011;59091;47.446;19.148;2023-04-06T05:19:13;21.02;;;9.95;;
71303;SDS011;59091;47.446;19.148;2023-04-06T05:21:39;18.50;;;9.55;;
71303;SDS011;59091;47.446;19.148;2023-04-06T05:24:04;24.65;;;10.57;;
71303;SDS011;59091;47.446;19.148;2023-04-06T05:26:30;18.40;;;9.98;;
71303;SDS011;59091;47.446;19.148;2023-04-06T05:28:56;20.33;;;9.40;;
71303;SDS011;59091;47.446;19.148;2023-04-06T05:31:21;16.33;;;9.18;;
71303;SDS011;59091;47.446;19.148;2023-04-06T05:33:47;25.75;;;9.75;;
71303;SDS011;59091;47.446;19.148;2023-04-06T05:36:12;24.42;;;10.32;;
71303;SDS011;59091;47.446;19.148;2023-04-06T05:38:37;25.42;;;10.40;;
71303;SDS011;59091;47.446;19.148;2023-04-06T05:41:03;35.90;;;14.00;;
71303;SDS011;59091;47.446;19.148;2023-04-06T05:43:28;25.08;;;11.30;;
71303;SDS011;59091;47.446;19.148;2023-04-06T05:45:54;25.30;;;9.70;;
71303;SDS011;59091;47.446;19.148;2023-04-06T05:48:19;20.83;;;9.52;;
71303;SDS011;59091;47.446;19.148;2023-04-06T05:50:48;20.90;;;10.52;;
71303;SDS011;59091;47.446;19.148;2023-04-06T05:53:18;20.90;;;10.85;;
71303;SDS011;59091;47.446;19.148;2023-04-06T05:55:43;18.15;;;9.07;;
71303;SDS011;59091;47.446;19.148;2023-04-06T05:58:09;21.75;;;9.52;;
71303;SDS011;59091;47.446;19.148;2023-04-06T06:00:35;16.40;;;9.10;;
71303;SDS011;59091;47.446;19.148;2023-04-06T06:03:00;19.08;;;9.10;;
71303;SDS011;59091;47.446;19.148;2023-04-06T06:05:29;18.55;;;9.18;;
71303;SDS011;59091;47.446;19.148;2023-04-06T06:07:54;18.48;;;9.50;;
71303;SDS011;59091;47.446;19.148;2023-04-06T06:10:20;22.88;;;9.10;;
71303;SDS011;59091;47.446;19.148;2023-04-06T06:12:45;16.13;;;9.15;;
71303;SDS011;59091;47.446;19.148;2023-04-06T06:15:11;16.42;;;9.30;;
71303;SDS011;59091;47.446;19.148;2023-04-06T06:17:36;17.23;;;9.32;;
71303;SDS011;59091;47.446;19.148;2023-04-06T06:20:04;21.13;;;10.30;;
71303;SDS011;59091;47.446;19.148;2023-04-06T06:22:31;30.70;;;10.63;;
71303;SDS011;59091;47.446;19.148;2023-04-06T06:24:56;20.90;;;10.20;;
71303;SDS011;59091;47.446;19.148;2023-04-06T06:27:22;27.20;;;10.15;;
71303;SDS011;59091;47.446;19.148;2023-04-06T06:29:47;20.63;;;9.85;;
71303;SDS011;59091;47.446;19.148;2023-04-06T06:32:13;26.63;;;10.80;;
71303;SDS011;59091;47.446;19.148;2023-04-06T06:34:39;25.45;;;10.93;;
71303;SDS011;59091;47.446;19.148;2023-04-06T06:37:05;21.02;;;10.25;;
71303;SDS011;59091;47.446;19.148;2023-04-06T06:39:31;23.45;;;10.00;;
71303;SDS011;59091;47.446;19.148;2023-04-06T06:41:56;19.48;;;10.40;;
71303;SDS011;59091;47.446;19.148;2023-04-06T06:44:22;20.55;;;10.40;;
71303;SDS011;59091;47.446;19.148;2023-04-06T06:46:48;19.58;;;9.38;;
71303;SDS011;59091;47.446;19.148;2023-04-06T06:49:13;19.52;;;8.93;;
71303;SDS011;59091;47.446;19.148;2023-04-06T06:51:39;20.27;;;7.95;;
71303;SDS011;59091;47.446;19.148;2023-04-06T06:54:05;16.58;;;8.02;;
71303;SDS011;59091;47.446;19.148;2023-04-06T06:56:31;17.30;;;8.63;;
71303;SDS011;59091;47.446;19.148;2023-04-06T06:58:56;16.25;;;7.90;;
71303;SDS011;59091;47.446;19.148;2023-04-06T07:01:22;14.20;;;8.70;;
71303;SDS011;59091;47.446;19.148;2023-04-06T07:03:47;17.65;;;8.85;;
71303;SDS011;59091;47.446;19.148;2023-04-06T07:06:19;17.05;;;8.40;;
71303;SDS011;59091;47.446;19.148;2023-04-06T07:08:48;18.08;;;8.07;;
71303;SDS011;59091;47.446;19.148;2023-04-06T07:11:14;15.77;;;8.02;;
71303;SDS011;59091;47.446;19.148;2023-04-06T07:13:39;13.18;;;8.30;;
71303;SDS011;59091;47.446;19.148;2023-04-06T07:16:06;17.67;;;8.45;;
71303;SDS011;59091;47.446;19.148;2023-04-06T07:18:41;21.05;;;8.98;;
71303;SDS011;59091;47.446;19.148;2023-04-06T07:21:06;15.85;;;8.57;;
71303;SDS011;59091;47.446;19.148;2023-04-06T07:23:32;16.08;;;8.68;;
71303;SDS011;59091;47.446;19.148;2023-04-06T07:25:57;12.13;;;6.95;;
71303;SDS011;59091;47.446;19.148;2023-04-06T07:28:23;12.70;;;6.78;;
71303;SDS011;59091;47.446;19.148;2023-04-06T07:30:48;16.58;;;7.18;;
71303;SDS011;59091;47.446;19.148;2023-04-06T07:33:14;12.82;;;6.95;;
71303;SDS011;59091;47.446;19.148;2023-04-06T07:35:39;15.40;;;6.75;;
71303;SDS011;59091;47.446;19.148;2023-04-06T07:38:05;11.73;;;6.28;;
71303;SDS011;59091;47.446;19.148;2023-04-06T07:40:30;13.27;;;6.63;;
71303;SDS011;59091;47.446;19.148;2023-04-06T07:42:57;13.80;;;6.88;;
71303;SDS011;59091;47.446;19.148;2023-04-06T07:45:23;11.63;;;6.65;;
71303;SDS011;59091;47.446;19.148;2023-04-06T07:47:48;12.32;;;6.65;;
71303;SDS011;59091;47.446;19.148;2023-04-06T07:50:15;10.30;;;6.88;;
71303;SDS011;59091;47.446;19.148;2023-04-06T07:52:40;13.80;;;7.20;;
71303;SDS011;59091;47.446;19.148;2023-04-06T07:55:06;13.82;;;6.35;;
71303;SDS011;59091;47.446;19.148;2023-04-06T07:57:31;13.07;;;6.75;;
71303;SDS011;59091;47.446;19.148;2023-04-06T07:59:57;15.00;;;7.57;;
71303;SDS011;59091;47.446;19.148;2023-04-06T08:02:22;15.48;;;7.00;;
71303;SDS011;59091;47.446;19.148;2023-04-06T08:04:48;16.08;;;7.05;;
71303;SDS011;59091;47.446;19.148;2023-04-06T08:07:13;12.65;;;7.18;;
71303;SDS011;59091;47.446;19.148;2023-04-06T08:09:39;10.98;;;6.90;;
71303;SDS011;59091;47.446;19.148;2023-04-06T08:12:04;14.02;;;7.22;;
71303;SDS011;59091;47.446;19.148;2023-04-06T08:14:30;13.43;;;7.63;;
71303;SDS011;59091;47.446;19.148;2023-04-06T08:16:55;16.45;;;7.63;;
71303;SDS011;59091;47.446;19.148;2023-04-06T08:19:21;14.50;;;7.00;;
71303;SDS011;59091;47.446;19.148;2023-04-06T08:21:46;16.35;;;7.47;;
71303;SDS011;59091;47.446;19.148;2023-04-06T08:24:12;13.50;;;6.88;;
71303;SDS011;59091;47.446;19.148;2023-04-06T08:26:38;19.95;;;7.40;;
71303;SDS011;59091;47.446;19.148;2023-04-06T08:29:04;13.77;;;6.93;;
71303;SDS011;59091;47.446;19.148;2023-04-06T08:31:32;11.18;;;7.05;;
71303;SDS011;59091;47.446;19.148;2023-04-06T08:33:58;15.98;;;7.50;;
71303;SDS011;59091;47.446;19.148;2023-04-06T08:36:24;16.23;;;8.00;;
71303;SDS011;59091;47.446;19.148;2023-04-06T08:38:49;15.20;;;7.60;;
71303;SDS011;59091;47.446;19.148;2023-04-06T08:41:15;15.43;;;7.55;;
71303;SDS011;59091;47.446;19.148;2023-04-06T08:43:43;14.55;;;7.00;;
71303;SDS011;59091;47.446;19.148;2023-04-06T08:46:12;18.50;;;7.22;;
71303;SDS011;59091;47.446;19.148;2023-04-06T08:48:38;12.30;;;7.05;;
71303;SDS011;59091;47.446;19.148;2023-04-06T08:51:05;13.50;;;7.75;;
71303;SDS011;59091;47.446;19.148;2023-04-06T08:53:31;12.75;;;7.40;;
71303;SDS011;59091;47.446;19.148;2023-04-06T08:55:56;16.63;;;6.82;;
71303;SDS011;59091;47.446;19.148;2023-04-06T08:58:23;12.55;;;7.20;;
71303;SDS011;59091;47.446;19.148;2023-04-06T09:00:50;13.13;;;6.85;;
71303;SDS011;59091;47.446;19.148;2023-04-06T09:03:16;13.80;;;7.20;;
71303;SDS011;59091;47.446;19.148;2023-04-06T09:05:42;11.77;;;6.90;;
71303;SDS011;59091;47.446;19.148;2023-04-06T09:08:10;15.45;;;7.80;;
71303;SDS011;59091;47.446;19.148;2023-04-06T09:10:35;12.23;;;7.25;;
71303;SDS011;59091;47.446;19.148;2023-04-06T09:13:05;10.23;;;6.50;;
71303;SDS011;59091;47.446;19.148;2023-04-06T09:15:31;14.45;;;7.88;;
71303;SDS011;59091;47.446;19.148;2023-04-06T09:17:57;13.50;;;8.00;;
71303;SDS011;59091;47.446;19.148;2023-04-06T09:20:23;16.02;;;7.82;;
71303;SDS011;59091;47.446;19.148;2023-04-06T09:22:53;13.43;;;7.15;;
71303;SDS011;59091;47.446;19.148;2023-04-06T09:25:20;16.55;;;8.50;;
71303;SDS011;59091;47.446;19.148;2023-04-06T09:28:03;12.25;;;7.82;;
71303;SDS011;59091;47.446;19.148;2023-04-06T09:30:29;17.45;;;7.40;;
71303;SDS011;59091;47.446;19.148;2023-04-06T09:32:56;13.85;;;7.10;;
71303;SDS011;59091;47.446;19.148;2023-04-06T09:35:23;12.60;;;6.40;;
71303;SDS011;59091;47.446;19.148;2023-04-06T09:37:51;10.52;;;6.18;;
71303;SDS011;59091;47.446;19.148;2023-04-06T09:40:17;13.32;;;6.13;;
71303;SDS011;59091;47.446;19.148;2023-04-06T09:42:47;10.80;;;6.35;;
71303;SDS011;59091;47.446;19.148;2023-04-06T09:45:15;14.82;;;6.47;;
71303;SDS011;59091;47.446;19.148;2023-04-06T09:47:44;18.27;;;6.80;;
71303;SDS011;59091;47.446;19.148;2023-04-06T09:50:11;10.32;;;6.53;;
71303;SDS011;59091;47.446;19.148;2023-04-06T09:52:40;12.15;;;5.78;;
71303;SDS011;59091;47.446;19.148;2023-04-06T09:55:08;11.00;;;6.78;;
71303;SDS011;59091;47.446;19.148;2023-04-06T09:57:50;8.63;;;5.95;;
71303;SDS011;59091;47.446;19.148;2023-04-06T10:00:22;12.07;;;6.85;;
71303;SDS011;59091;47.446;19.148;2023-04-06T10:02:51;13.30;;;7.05;;
71303;SDS011;59091;47.446;19.148;2023-04-06T10:08:11;13.13;;;6.80;;
71303;SDS011;59091;47.446;19.148;2023-04-06T10:10:38;12.27;;;6.80;;
71303;SDS011;59091;47.446;19.148;2023-04-06T10:13:04;15.40;;;6.85;;
71303;SDS011;59091;47.446;19.148;2023-04-06T10:15:30;11.80;;;6.85;;
71303;SDS011;59091;47.446;19.148;2023-04-06T10:17:56;11.90;;;6.80;;
71303;SDS011;59091;47.446;19.148;2023-04-06T10:22:54;11.32;;;7.05;;
71303;SDS011;59091;47.446;19.148;2023-04-06T10:25:32;10.98;;;6.70;;
71303;SDS011;59091;47.446;19.148;2023-04-06T10:28:02;10.13;;;7.03;;
71303;SDS011;59091;47.446;19.148;2023-04-06T10:30:30;15.10;;;7.10;;
71303;SDS011;59091;47.446;19.148;2023-04-06T10:32:57;11.18;;;6.88;;
71303;SDS011;59091;47.446;19.148;2023-04-06T10:35:22;14.55;;;6.82;;
71303;SDS011;59091;47.446;19.148;2023-04-06T10:37:50;13.85;;;6.82;;
71303;SDS011;59091;47.446;19.148;2023-04-06T10:40:26;12.32;;;7.20;;
71303;SDS011;59091;47.446;19.148;2023-04-06T10:42:55;15.63;;;7.20;;
71303;SDS011;59091;47.446;19.148;2023-04-06T10:45:31;11.75;;;6.30;;
71303;SDS011;59091;47.446;19.148;2023-04-06T10:47:57;11.10;;;6.38;;
71303;SDS011;59091;47.446;19.148;2023-04-06T10:50:23;10.95;;;6.70;;
71303;SDS011;59091;47.446;19.148;2023-04-06T10:52:58;9.30;;;6.32;;
71303;SDS011;59091;47.446;19.148;2023-04-06T10:55:25;10.48;;;6.82;;
71303;SDS011;59091;47.446;19.148;2023-04-06T10:57:53;13.82;;;6.93;;
71303;SDS011;59091;47.446;19.148;2023-04-06T11:00:18;10.02;;;6.40;;
71303;SDS011;59091;47.446;19.148;2023-04-06T11:02:45;11.38;;;6.32;;
71303;SDS011;59091;47.446;19.148;2023-04-06T11:05:11;14.75;;;6.95;;
71303;SDS011;59091;47.446;19.148;2023-04-06T11:07:40;12.20;;;6.22;;
71303;SDS011;59091;47.446;19.148;2023-04-06T11:10:06;9.90;;;6.80;;
71303;SDS011;59091;47.446;19.148;2023-04-06T11:12:33;11.02;;;6.20;;
71303;SDS011;59091;47.446;19.148;2023-04-06T11:15:02;11.23;;;5.93;;
71303;SDS011;59091;47.446;19.148;2023-04-06T11:17:32;11.35;;;6.35;;
71303;SDS011;59091;47.446;19.148;2023-04-06T11:19:59;13.85;;;7.20;;
71303;SDS011;59091;47.446;19.148;2023-04-06T11:22:25;13.57;;;6.30;;
71303;SDS011;59091;47.446;19.148;2023-04-06T11:24:51;11.07;;;6.38;;
71303;SDS011;59091;47.446;19.148;2023-04-06T11:27:17;11.13;;;5.95;;
71303;SDS011;59091;47.446;19.148;2023-04-06T11:29:44;10.38;;;5.55;;
71303;SDS011;59091;47.446;19.148;2023-04-06T11:32:22;10.13;;;6.07;;
71303;SDS011;59091;47.446;19.148;2023-04-06T11:34:49;10.45;;;6.13;;
71303;SDS011;59091;47.446;19.148;2023-04-06T11:37:15;10.20;;;6.00;;
71303;SDS011;59091;47.446;19.148;2023-04-06T11:39:43;14.15;;;6.43;;
71303;SDS011;59091;47.446;19.148;2023-04-06T11:42:24;13.05;;;6.13;;
71303;SDS011;59091;47.446;19.148;2023-04-06T11:44:53;13.13;;;6.20;;
71303;SDS011;59091;47.446;19.148;2023-04-06T11:47:19;11.20;;;6.05;;
71303;SDS011;59091;47.446;19.148;2023-04-06T11:49:51;11.90;;;5.80;;
71303;SDS011;59091;47.446;19.148;2023-04-06T11:52:22;10.65;;;6.10;;
71303;SDS011;59091;47.446;19.148;2023-04-06T11:54:49;6.80;;;5.28;;
71303;SDS011;59091;47.446;19.148;2023-04-06T11:57:16;13.40;;;6.38;;
71303;SDS011;59091;47.446;19.148;2023-04-06T11:59:42;13.70;;;6.30;;
71303;SDS011;59091;47.446;19.148;2023-04-06T12:02:08;7.95;;;5.38;;
71303;SDS011;59091;47.446;19.148;2023-04-06T12:04:34;7.68;;;5.10;;
71303;SDS011;59091;47.446;19.148;2023-04-06T12:07:00;9.65;;;5.40;;
71303;SDS011;59091;47.446;19.148;2023-04-06T12:09:26;13.73;;;6.15;;
71303;SDS011;59091;47.446;19.148;2023-04-06T12:11:51;10.27;;;6.20;;
71303;SDS011;59091;47.446;19.148;2023-04-06T12:14:17;11.77;;;6.20;;
71303;SDS011;59091;47.446;19.148;2023-04-06T12:16:42;9.50;;;6.05;;
71303;SDS011;59091;47.446;19.148;2023-04-06T12:19:08;11.57;;;5.75;;
71303;SDS011;59091;47.446;19.148;2023-04-06T12:21:34;15.93;;;6.57;;
71303;SDS011;59091;47.446;19.148;2023-04-06T12:24:02;10.63;;;5.90;;
71303;SDS011;59091;47.446;19.148;2023-04-06T12:26:29;11.45;;;6.05;;
71303;SDS011;59091;47.446;19.148;2023-04-06T12:28:55;9.02;;;5.80;;
71303;SDS011;59091;47.446;19.148;2023-04-06T12:31:21;10.55;;;6.28;;
71303;SDS011;59091;47.446;19.148;2023-04-06T12:33:48;10.02;;;6.30;;
71303;SDS011;59091;47.446;19.148;2023-04-06T12:36:15;8.98;;;6.45;;
71303;SDS011;59091;47.446;19.148;2023-04-06T12:38:44;11.63;;;6.03;;
71303;SDS011;59091;47.446;19.148;2023-04-06T12:41:10;9.85;;;5.50;;
71303;SDS011;59091;47.446;19.148;2023-04-06T12:43:36;11.32;;;6.95;;
71303;SDS011;59091;47.446;19.148;2023-04-06T12:46:02;14.18;;;6.05;;
71303;SDS011;59091;47.446;19.148;2023-04-06T12:48:27;10.45;;;6.05;;
71303;SDS011;59091;47.446;19.148;2023-04-06T12:50:57;11.32;;;6.45;;
71303;SDS011;59091;47.446;19.148;2023-04-06T12:53:23;13.27;;;6.50;;
71303;SDS011;59091;47.446;19.148;2023-04-06T12:55:49;8.32;;;5.55;;
71303;SDS011;59091;47.446;19.148;2023-04-06T12:58:15;9.88;;;6.50;;
71303;SDS011;59091;47.446;19.148;2023-04-06T13:00:41;13.10;;;6.10;;
71303;SDS011;59091;47.446;19.148;2023-04-06T13:03:07;13.55;;;6.07;;
71303;SDS011;59091;47.446;19.148;2023-04-06T13:05:32;8.27;;;5.78;;
71303;SDS011;59091;47.446;19.148;2023-04-06T13:07:58;9.70;;;6.07;;
71303;SDS011;59091;47.446;19.148;2023-04-06T13:10:23;12.40;;;5.85;;
71303;SDS011;59091;47.446;19.148;2023-04-06T13:12:49;11.75;;;6.05;;
71303;SDS011;59091;47.446;19.148;2023-04-06T13:15:14;11.82;;;5.85;;
71303;SDS011;59091;47.446;19.148;2023-04-06T13:17:40;16.55;;;6.72;;
71303;SDS011;59091;47.446;19.148;2023-04-06T13:20:06;8.00;;;6.03;;
71303;SDS011;59091;47.446;19.148;2023-04-06T13:22:32;10.40;;;6.18;;
71303;SDS011;59091;47.446;19.148;2023-04-06T13:24:57;9.88;;;5.10;;
71303;SDS011;59091;47.446;19.148;2023-04-06T13:27:23;11.95;;;5.85;;
71303;SDS011;59091;47.446;19.148;2023-04-06T13:29:48;10.88;;;6.20;;
71303;SDS011;59091;47.446;19.148;2023-04-06T13:32:14;9.77;;;5.13;;
71303;SDS011;59091;47.446;19.148;2023-04-06T13:34:39;8.73;;;6.03;;
71303;SDS011;59091;47.446;19.148;2023-04-06T13:37:09;10.82;;;5.90;;
71303;SDS011;59091;47.446;19.148;2023-04-06T13:39:38;12.85;;;6.15;;
71303;SDS011;59091;47.446;19.148;2023-04-06T13:42:03;12.32;;;6.28;;
71303;SDS011;59091;47.446;19.148;2023-04-06T13:44:29;8.50;;;5.57;;
71303;SDS011;59091;47.446;19.148;2023-04-06T13:46:56;9.98;;;5.75;;
71303;SDS011;59091;47.446;19.148;2023-04-06T13:49:21;9.38;;;5.75;;
71303;SDS011;59091;47.446;19.148;2023-04-06T13:51:47;10.85;;;5.78;;
71303;SDS011;59091;47.446;19.148;2023-04-06T13:54:12;10.40;;;5.88;;
71303;SDS011;59091;47.446;19.148;2023-04-06T13:56:38;10.95;;;6.40;;
71303;SDS011;59091;47.446;19.148;2023-04-06T13:59:03;10.07;;;5.63;;
71303;SDS011;59091;47.446;19.148;2023-04-06T14:01:29;13.90;;;5.32;;
71303;SDS011;59091;47.446;19.148;2023-04-06T14:03:54;7.85;;;5.15;;
71303;SDS011;59091;47.446;19.148;2023-04-06T14:06:20;9.85;;;5.90;;
71303;SDS011;59091;47.446;19.148;2023-04-06T14:08:45;7.15;;;5.15;;
71303;SDS011;59091;47.446;19.148;2023-04-06T14:11:12;9.32;;;5.43;;
71303;SDS011;59091;47.446;19.148;2023-04-06T14:13:38;10.15;;;5.28;;
71303;SDS011;59091;47.446;19.148;2023-04-06T14:16:04;12.77;;;5.80;;
71303;SDS011;59091;47.446;19.148;2023-04-06T14:18:30;10.55;;;4.95;;
71303;SDS011;59091;47.446;19.148;2023-04-06T14:20:56;9.05;;;5.32;;
71303;SDS011;59091;47.446;19.148;2023-04-06T14:23:23;8.15;;;4.82;;